Air Resources Laboratory banner image
Air Resources Laboratory web site National Oceanic and Atmospheric Administration (NOAA)

nh metar


KAFN 211752Z AUTO 23009KT 200V260 10SM FEW028 SCT036 BKN090 00/M02 A2980 RMK
 AO2 SLP107 T00001017 10006 21044 56032=
KASH 211756Z VRB05KT 10SM SCT035 BKN100 03/M01 A2983 RMK AO2 SLP114 60000
 T00281011 10033 21033 57039=
KBML 211752Z AUTO 23007G16KT 10SM SCT030 BKN070 OVC090 00/M05 A2965 RMK AO2
 UPB00E09 SLP057 P0000 60000 T00001050 10006 21117 58041=
KCON 211751Z AUTO 17007KT 10SM BKN030 OVC036 M01/M01 A2981 RMK AO2 SLP099 60000
 T10061011 11006 21083 58036=
KCWN 211758Z AUTO 00000KT 10SM CLR 11/M13 A3017 RMK AO2 SLP104 T01121134 10112
 20037 50002 $=
KDAW 211751Z AUTO 18005KT 10SM OVC043 00/M01 A2981 RMK AO2 SLP095 T00001011
 10000 21050 58037=
KEEN 211756Z AUTO 19010KT 10SM BKN044 BKN055 02/M03 A2982 RMK AO2 SLP117
 T00171028 10017 21039 56034 FZRANO $=
KHIE 211752Z AUTO 22008G16KT 180V250 10SM BKN047 OVC060 00/M04 A2967 RMK AO2
 SLP063 60000 T00001039 10000 21061 58038=
KLCI 211756Z AUTO 22011KT 4SM -SN BR FEW014 BKN031 OVC047 00/M02 A2977 RMK AO2
 SLP100 P0000 60000 T00001022 10006 21078 58037 FZRANO $=
KLEB 211753Z 17009KT 10SM OVC033 01/M03 A2975 RMK AO2 SNB01E19 SLP084 P0000
 60002 T00061033 10006 21072 56036=
KMHT 211753Z 18008KT 10SM BKN034 OVC042 02/M02 A2981 RMK AO2 SLP114 4/006
 T00171017 10017 21033 58038=
KMWN 211748Z 26039G49KT 1/16SM -SHSN FZFG DRSN VV001 M13/M13 RMK VRY LGT ICG
 60021 4/016 931010 11127 21175=
KPSM 211756Z 20007KT 10SM BKN050 OVC100 01/M02 A2982 RMK AO2A SLP101 4/004
 T00111021 10011 21038 57038=